Terminal Aerodrome Forecast
Issued by NWS

Home | Current Version | Previous Version | Text Only | Print | Product List | Glossary Off
Versions: 1 2 3 4 5 6 7 8 9 10 11 12 13 14 15 16 17 18 19 20

000
FTUS41 KCLE 300520
TAFFDY
TAF
KFDY 300520Z 3006/0106 00000KT P6SM OVC006
     FM300700 VRB03KT 4SM BR OVC003
     FM301300 23006KT P6SM OVC015
     FM301500 23008KT P6SM BKN050
     FM301700 23008KT P6SM -TSRA OVC025CB
     FM302300 26008KT P6SM BKN100
     FM010500 26006KT P6SM OVC050=

USA.gov is the U.S. government's official web portal to all federal, state and local government web resources and services.